Dallas, Texas
Traffic Map
Current Weather Conditions
Dallas, Texas
Overcast
Overcast
14°
Feels Like: 14°
Wind Chill: 14° Ceiling: 21000
Heat Index: 14° Visibility: 10mi
Dew Point: 13° Wind: 7mph
Humidity: 96% Direction: 180° (S)
Pressure: 29.74in Gusts: 0mph
Raw Report DataKDAL 230453Z 18006KT 10SM FEW010 FEW150 OVC210 14/13 A2974 RMK AO2 SLP067 T01390133
Traffic Incident Summary
Active as of:
Severity:
Category:
InformationThere was an issue retrieving the traffic information for this location. Please try a different location or try again shortly.
Advertisements
Track Severe Weather on mobile